sensor_id;sensor_type;location;lat;lon;timestamp;P1;durP1;ratioP1;P2;durP2;ratioP2
55346;SDS011;41218;55.700;38.270;2023-07-31T00:02:42;10.77;;;5.05;;
55346;SDS011;41218;55.700;38.270;2023-07-31T00:07:43;10.70;;;4.70;;
55346;SDS011;41218;55.700;38.270;2023-07-31T00:12:44;6.65;;;4.85;;
55346;SDS011;41218;55.700;38.270;2023-07-31T00:17:45;7.38;;;4.80;;
55346;SDS011;41218;55.700;38.270;2023-07-31T00:22:46;11.27;;;5.00;;
55346;SDS011;41218;55.700;38.270;2023-07-31T00:27:46;8.60;;;5.10;;
55346;SDS011;41218;55.700;38.270;2023-07-31T00:32:47;7.83;;;5.10;;
55346;SDS011;41218;55.700;38.270;2023-07-31T00:37:47;7.83;;;5.10;;
55346;SDS011;41218;55.700;38.270;2023-07-31T00:42:48;9.40;;;5.15;;
55346;SDS011;41218;55.700;38.270;2023-07-31T00:47:48;7.73;;;5.13;;
55346;SDS011;41218;55.700;38.270;2023-07-31T00:52:49;6.55;;;4.45;;
55346;SDS011;41218;55.700;38.270;2023-07-31T00:57:49;8.10;;;5.03;;
55346;SDS011;41218;55.700;38.270;2023-07-31T01:02:52;9.48;;;5.20;;
55346;SDS011;41218;55.700;38.270;2023-07-31T01:07:56;9.02;;;4.90;;
55346;SDS011;41218;55.700;38.270;2023-07-31T01:18:25;10.20;;;5.07;;
55346;SDS011;41218;55.700;38.270;2023-07-31T01:29:00;8.57;;;4.90;;
55346;SDS011;41218;55.700;38.270;2023-07-31T01:34:04;7.38;;;4.90;;
55346;SDS011;41218;55.700;38.270;2023-07-31T01:39:06;8.18;;;4.80;;
55346;SDS011;41218;55.700;38.270;2023-07-31T01:44:06;8.83;;;5.07;;
55346;SDS011;41218;55.700;38.270;2023-07-31T01:49:07;11.20;;;4.32;;
55346;SDS011;41218;55.700;38.270;2023-07-31T01:54:07;8.13;;;4.97;;
55346;SDS011;41218;55.700;38.270;2023-07-31T01:59:08;14.53;;;5.07;;
55346;SDS011;41218;55.700;38.270;2023-07-31T02:04:09;11.77;;;5.23;;
55346;SDS011;41218;55.700;38.270;2023-07-31T02:09:09;10.40;;;4.75;;
55346;SDS011;41218;55.700;38.270;2023-07-31T02:14:10;8.37;;;4.73;;
55346;SDS011;41218;55.700;38.270;2023-07-31T02:19:10;10.57;;;4.50;;
55346;SDS011;41218;55.700;38.270;2023-07-31T02:24:11;9.87;;;5.07;;
55346;SDS011;41218;55.700;38.270;2023-07-31T02:29:11;7.60;;;4.73;;
55346;SDS011;41218;55.700;38.270;2023-07-31T02:34:12;7.90;;;4.57;;
55346;SDS011;41218;55.700;38.270;2023-07-31T02:39:12;11.47;;;5.13;;
55346;SDS011;41218;55.700;38.270;2023-07-31T02:44:13;9.20;;;4.37;;
55346;SDS011;41218;55.700;38.270;2023-07-31T02:54:14;10.70;;;5.00;;
55346;SDS011;41218;55.700;38.270;2023-07-31T02:59:15;12.07;;;4.80;;
55346;SDS011;41218;55.700;38.270;2023-07-31T03:09:17;7.13;;;4.57;;
55346;SDS011;41218;55.700;38.270;2023-07-31T03:14:17;10.60;;;4.63;;
55346;SDS011;41218;55.700;38.270;2023-07-31T03:19:18;10.20;;;5.03;;
55346;SDS011;41218;55.700;38.270;2023-07-31T03:24:18;7.67;;;4.77;;
55346;SDS011;41218;55.700;38.270;2023-07-31T03:29:19;8.87;;;5.30;;
55346;SDS011;41218;55.700;38.270;2023-07-31T03:34:19;7.60;;;5.18;;
55346;SDS011;41218;55.700;38.270;2023-07-31T03:39:20;12.13;;;5.07;;
55346;SDS011;41218;55.700;38.270;2023-07-31T03:44:20;8.93;;;5.03;;
55346;SDS011;41218;55.700;38.270;2023-07-31T03:49:21;8.60;;;4.93;;
55346;SDS011;41218;55.700;38.270;2023-07-31T03:54:22;10.50;;;5.03;;
55346;SDS011;41218;55.700;38.270;2023-07-31T03:59:22;8.30;;;5.07;;
55346;SDS011;41218;55.700;38.270;2023-07-31T04:04:23;10.13;;;4.80;;
55346;SDS011;41218;55.700;38.270;2023-07-31T04:09:23;7.77;;;4.87;;
55346;SDS011;41218;55.700;38.270;2023-07-31T04:14:24;7.60;;;5.00;;
55346;SDS011;41218;55.700;38.270;2023-07-31T04:19:25;8.77;;;5.03;;
55346;SDS011;41218;55.700;38.270;2023-07-31T04:24:25;7.80;;;4.60;;
55346;SDS011;41218;55.700;38.270;2023-07-31T04:29:26;10.00;;;4.63;;
55346;SDS011;41218;55.700;38.270;2023-07-31T04:34:28;8.27;;;4.90;;
55346;SDS011;41218;55.700;38.270;2023-07-31T04:39:28;7.72;;;4.72;;
55346;SDS011;41218;55.700;38.270;2023-07-31T04:44:29;10.38;;;5.50;;
55346;SDS011;41218;55.700;38.270;2023-07-31T04:49:30;6.78;;;5.00;;
55346;SDS011;41218;55.700;38.270;2023-07-31T04:54:31;8.68;;;4.60;;
55346;SDS011;41218;55.700;38.270;2023-07-31T04:59:32;7.68;;;4.20;;
55346;SDS011;41218;55.700;38.270;2023-07-31T05:04:32;5.70;;;3.80;;
55346;SDS011;41218;55.700;38.270;2023-07-31T05:09:33;5.72;;;3.97;;
55346;SDS011;41218;55.700;38.270;2023-07-31T05:14:33;6.57;;;3.80;;
55346;SDS011;41218;55.700;38.270;2023-07-31T05:24:34;6.63;;;3.50;;
55346;SDS011;41218;55.700;38.270;2023-07-31T05:34:35;4.17;;;2.90;;
55346;SDS011;41218;55.700;38.270;2023-07-31T05:44:36;6.10;;;3.20;;
55346;SDS011;41218;55.700;38.270;2023-07-31T05:54:37;5.07;;;2.60;;
55346;SDS011;41218;55.700;38.270;2023-07-31T06:04:38;4.53;;;2.40;;
55346;SDS011;41218;55.700;38.270;2023-07-31T06:14:39;4.83;;;2.60;;
55346;SDS011;41218;55.700;38.270;2023-07-31T06:19:39;6.30;;;2.70;;
55346;SDS011;41218;55.700;38.270;2023-07-31T06:24:40;5.85;;;2.95;;
55346;SDS011;41218;55.700;38.270;2023-07-31T06:29:41;4.13;;;2.53;;
55346;SDS011;41218;55.700;38.270;2023-07-31T06:34:42;6.30;;;2.38;;
55346;SDS011;41218;55.700;38.270;2023-07-31T06:39:43;2.30;;;2.10;;
55346;SDS011;41218;55.700;38.270;2023-07-31T06:44:43;2.70;;;2.00;;
55346;SDS011;41218;55.700;38.270;2023-07-31T06:49:44;4.22;;;2.60;;
55346;SDS011;41218;55.700;38.270;2023-07-31T06:54:56;4.20;;;2.40;;
55346;SDS011;41218;55.700;38.270;2023-07-31T07:00:02;4.20;;;2.30;;
55346;SDS011;41218;55.700;38.270;2023-07-31T07:05:04;2.60;;;2.10;;
55346;SDS011;41218;55.700;38.270;2023-07-31T07:10:04;3.83;;;2.00;;
55346;SDS011;41218;55.700;38.270;2023-07-31T07:20:29;2.63;;;2.00;;
55346;SDS011;41218;55.700;38.270;2023-07-31T07:25:30;3.10;;;1.80;;
55346;SDS011;41218;55.700;38.270;2023-07-31T07:30:30;1.80;;;1.65;;
55346;SDS011;41218;55.700;38.270;2023-07-31T07:35:34;1.98;;;1.70;;
55346;SDS011;41218;55.700;38.270;2023-07-31T07:40:39;2.28;;;1.63;;
55346;SDS011;41218;55.700;38.270;2023-07-31T07:45:39;4.97;;;2.03;;
55346;SDS011;41218;55.700;38.270;2023-07-31T07:50:40;3.20;;;1.70;;
55346;SDS011;41218;55.700;38.270;2023-07-31T07:55:41;3.85;;;1.70;;
55346;SDS011;41218;55.700;38.270;2023-07-31T08:00:41;3.35;;;1.65;;
55346;SDS011;41218;55.700;38.270;2023-07-31T08:05:42;2.53;;;1.70;;
55346;SDS011;41218;55.700;38.270;2023-07-31T08:10:43;2.45;;;1.63;;
55346;SDS011;41218;55.700;38.270;2023-07-31T08:15:43;3.03;;;1.92;;
55346;SDS011;41218;55.700;38.270;2023-07-31T08:20:44;3.67;;;1.80;;
55346;SDS011;41218;55.700;38.270;2023-07-31T08:25:45;2.78;;;1.80;;
55346;SDS011;41218;55.700;38.270;2023-07-31T08:30:45;2.08;;;1.80;;
55346;SDS011;41218;55.700;38.270;2023-07-31T08:35:46;2.90;;;1.90;;
55346;SDS011;41218;55.700;38.270;2023-07-31T08:40:46;2.10;;;1.67;;
55346;SDS011;41218;55.700;38.270;2023-07-31T08:45:47;2.72;;;1.70;;
55346;SDS011;41218;55.700;38.270;2023-07-31T08:50:48;2.80;;;1.55;;
55346;SDS011;41218;55.700;38.270;2023-07-31T08:55:48;2.90;;;1.80;;
55346;SDS011;41218;55.700;38.270;2023-07-31T09:00:50;2.33;;;1.90;;
55346;SDS011;41218;55.700;38.270;2023-07-31T09:05:51;2.63;;;2.08;;
55346;SDS011;41218;55.700;38.270;2023-07-31T09:10:53;2.90;;;1.90;;
55346;SDS011;41218;55.700;38.270;2023-07-31T09:15:55;2.13;;;1.88;;
55346;SDS011;41218;55.700;38.270;2023-07-31T09:21:05;3.08;;;2.00;;
55346;SDS011;41218;55.700;38.270;2023-07-31T09:26:06;4.63;;;2.35;;
55346;SDS011;41218;55.700;38.270;2023-07-31T09:31:07;3.50;;;2.10;;
55346;SDS011;41218;55.700;38.270;2023-07-31T09:36:07;4.32;;;2.15;;
55346;SDS011;41218;55.700;38.270;2023-07-31T09:41:08;2.22;;;1.92;;
55346;SDS011;41218;55.700;38.270;2023-07-31T09:46:13;4.05;;;2.15;;
55346;SDS011;41218;55.700;38.270;2023-07-31T09:51:14;5.97;;;1.95;;
55346;SDS011;41218;55.700;38.270;2023-07-31T09:56:15;2.92;;;2.10;;
55346;SDS011;41218;55.700;38.270;2023-07-31T10:01:18;2.88;;;2.25;;
55346;SDS011;41218;55.700;38.270;2023-07-31T10:06:18;6.55;;;2.17;;
55346;SDS011;41218;55.700;38.270;2023-07-31T10:11:19;3.60;;;2.60;;
55346;SDS011;41218;55.700;38.270;2023-07-31T10:16:22;3.80;;;2.13;;
55346;SDS011;41218;55.700;38.270;2023-07-31T10:21:23;2.70;;;2.50;;
55346;SDS011;41218;55.700;38.270;2023-07-31T10:26:23;3.22;;;2.30;;
55346;SDS011;41218;55.700;38.270;2023-07-31T10:31:26;2.97;;;2.33;;
55346;SDS011;41218;55.700;38.270;2023-07-31T10:36:28;3.42;;;2.60;;
55346;SDS011;41218;55.700;38.270;2023-07-31T10:41:29;3.22;;;2.50;;
55346;SDS011;41218;55.700;38.270;2023-07-31T10:46:32;3.97;;;2.35;;
55346;SDS011;41218;55.700;38.270;2023-07-31T10:51:33;3.65;;;2.38;;
55346;SDS011;41218;55.700;38.270;2023-07-31T10:56:37;4.05;;;2.38;;
55346;SDS011;41218;55.700;38.270;2023-07-31T11:01:51;2.42;;;2.22;;
55346;SDS011;41218;55.700;38.270;2023-07-31T11:07:02;3.38;;;2.50;;
55346;SDS011;41218;55.700;38.270;2023-07-31T11:12:04;3.25;;;2.63;;
55346;SDS011;41218;55.700;38.270;2023-07-31T11:17:06;2.63;;;2.38;;
55346;SDS011;41218;55.700;38.270;2023-07-31T11:22:07;3.90;;;3.20;;
55346;SDS011;41218;55.700;38.270;2023-07-31T11:27:08;4.68;;;2.90;;
55346;SDS011;41218;55.700;38.270;2023-07-31T11:32:15;3.63;;;2.63;;
55346;SDS011;41218;55.700;38.270;2023-07-31T11:37:17;3.50;;;2.40;;
55346;SDS011;41218;55.700;38.270;2023-07-31T11:42:17;7.75;;;2.50;;
55346;SDS011;41218;55.700;38.270;2023-07-31T11:47:18;4.05;;;2.60;;
55346;SDS011;41218;55.700;38.270;2023-07-31T11:52:20;3.95;;;2.90;;
55346;SDS011;41218;55.700;38.270;2023-07-31T11:57:20;3.30;;;2.70;;
55346;SDS011;41218;55.700;38.270;2023-07-31T12:02:22;4.53;;;3.10;;
55346;SDS011;41218;55.700;38.270;2023-07-31T12:07:23;3.05;;;2.67;;
55346;SDS011;41218;55.700;38.270;2023-07-31T12:12:25;2.90;;;2.58;;
55346;SDS011;41218;55.700;38.270;2023-07-31T12:17:26;3.25;;;2.95;;
55346;SDS011;41218;55.700;38.270;2023-07-31T12:22:26;4.75;;;2.38;;
55346;SDS011;41218;55.700;38.270;2023-07-31T12:27:32;4.38;;;2.85;;
55346;SDS011;41218;55.700;38.270;2023-07-31T12:32:33;2.72;;;2.53;;
55346;SDS011;41218;55.700;38.270;2023-07-31T12:37:33;6.90;;;2.80;;
55346;SDS011;41218;55.700;38.270;2023-07-31T12:42:34;4.18;;;2.63;;
55346;SDS011;41218;55.700;38.270;2023-07-31T12:47:34;3.55;;;2.92;;
55346;SDS011;41218;55.700;38.270;2023-07-31T12:52:35;4.00;;;2.85;;
55346;SDS011;41218;55.700;38.270;2023-07-31T12:57:35;14.70;;;7.03;;
55346;SDS011;41218;55.700;38.270;2023-07-31T13:02:36;14.57;;;6.85;;
55346;SDS011;41218;55.700;38.270;2023-07-31T13:07:37;5.95;;;3.30;;
55346;SDS011;41218;55.700;38.270;2023-07-31T13:12:38;5.25;;;3.30;;
55346;SDS011;41218;55.700;38.270;2023-07-31T13:17:39;4.90;;;3.40;;
55346;SDS011;41218;55.700;38.270;2023-07-31T13:22:40;5.10;;;3.38;;
55346;SDS011;41218;55.700;38.270;2023-07-31T13:27:40;5.38;;;3.80;;
55346;SDS011;41218;55.700;38.270;2023-07-31T13:32:41;3.95;;;3.33;;
55346;SDS011;41218;55.700;38.270;2023-07-31T13:37:41;4.53;;;3.15;;
55346;SDS011;41218;55.700;38.270;2023-07-31T13:42:42;3.72;;;2.95;;
55346;SDS011;41218;55.700;38.270;2023-07-31T13:47:42;5.40;;;3.20;;
55346;SDS011;41218;55.700;38.270;2023-07-31T13:52:43;4.18;;;3.40;;
55346;SDS011;41218;55.700;38.270;2023-07-31T13:57:43;7.43;;;4.70;;
55346;SDS011;41218;55.700;38.270;2023-07-31T14:02:44;11.77;;;4.22;;
55346;SDS011;41218;55.700;38.270;2023-07-31T14:07:44;5.88;;;3.65;;
55346;SDS011;41218;55.700;38.270;2023-07-31T14:12:45;7.88;;;4.75;;
55346;SDS011;41218;55.700;38.270;2023-07-31T14:17:45;7.90;;;4.90;;
55346;SDS011;41218;55.700;38.270;2023-07-31T14:22:46;5.82;;;4.57;;
55346;SDS011;41218;55.700;38.270;2023-07-31T14:27:46;7.97;;;4.60;;
55346;SDS011;41218;55.700;38.270;2023-07-31T14:32:47;6.30;;;4.30;;
55346;SDS011;41218;55.700;38.270;2023-07-31T14:37:48;8.50;;;5.13;;
55346;SDS011;41218;55.700;38.270;2023-07-31T14:42:48;7.20;;;4.47;;
55346;SDS011;41218;55.700;38.270;2023-07-31T14:47:49;7.55;;;4.63;;
55346;SDS011;41218;55.700;38.270;2023-07-31T14:52:49;9.70;;;4.82;;
55346;SDS011;41218;55.700;38.270;2023-07-31T14:57:50;8.60;;;4.65;;
55346;SDS011;41218;55.700;38.270;2023-07-31T15:02:50;6.18;;;3.85;;
55346;SDS011;41218;55.700;38.270;2023-07-31T15:07:51;15.30;;;7.05;;
55346;SDS011;41218;55.700;38.270;2023-07-31T15:12:51;6.97;;;4.25;;
55346;SDS011;41218;55.700;38.270;2023-07-31T15:17:52;6.95;;;3.75;;
55346;SDS011;41218;55.700;38.270;2023-07-31T15:22:53;5.63;;;3.50;;
55346;SDS011;41218;55.700;38.270;2023-07-31T15:27:53;8.32;;;3.08;;
55346;SDS011;41218;55.700;38.270;2023-07-31T15:32:54;5.10;;;3.10;;
55346;SDS011;41218;55.700;38.270;2023-07-31T15:37:55;5.45;;;3.20;;
55346;SDS011;41218;55.700;38.270;2023-07-31T15:42:55;6.85;;;3.92;;
55346;SDS011;41218;55.700;38.270;2023-07-31T15:47:56;7.57;;;3.50;;
55346;SDS011;41218;55.700;38.270;2023-07-31T15:52:56;5.90;;;3.60;;
55346;SDS011;41218;55.700;38.270;2023-07-31T15:57:57;5.20;;;3.90;;
55346;SDS011;41218;55.700;38.270;2023-07-31T16:02:58;4.45;;;3.88;;
55346;SDS011;41218;55.700;38.270;2023-07-31T16:07:58;7.78;;;4.07;;
55346;SDS011;41218;55.700;38.270;2023-07-31T16:12:59;11.63;;;6.05;;
55346;SDS011;41218;55.700;38.270;2023-07-31T16:17:59;6.00;;;4.35;;
55346;SDS011;41218;55.700;38.270;2023-07-31T16:23:00;6.38;;;4.15;;
55346;SDS011;41218;55.700;38.270;2023-07-31T16:28:00;6.22;;;3.80;;
55346;SDS011;41218;55.700;38.270;2023-07-31T16:33:01;5.20;;;3.60;;
55346;SDS011;41218;55.700;38.270;2023-07-31T16:38:01;6.00;;;3.85;;
55346;SDS011;41218;55.700;38.270;2023-07-31T16:43:02;5.50;;;4.18;;
55346;SDS011;41218;55.700;38.270;2023-07-31T16:48:03;8.80;;;3.78;;
55346;SDS011;41218;55.700;38.270;2023-07-31T16:53:03;7.13;;;3.65;;
55346;SDS011;41218;55.700;38.270;2023-07-31T16:58:04;8.70;;;3.50;;
55346;SDS011;41218;55.700;38.270;2023-07-31T17:03:05;6.45;;;3.55;;
55346;SDS011;41218;55.700;38.270;2023-07-31T17:08:06;5.35;;;3.40;;
55346;SDS011;41218;55.700;38.270;2023-07-31T17:13:06;5.65;;;3.45;;
55346;SDS011;41218;55.700;38.270;2023-07-31T17:18:07;6.47;;;3.70;;
55346;SDS011;41218;55.700;38.270;2023-07-31T17:23:09;5.40;;;3.88;;
55346;SDS011;41218;55.700;38.270;2023-07-31T17:28:09;5.38;;;3.78;;
55346;SDS011;41218;55.700;38.270;2023-07-31T17:33:13;5.80;;;4.07;;
55346;SDS011;41218;55.700;38.270;2023-07-31T17:38:14;6.75;;;3.95;;
55346;SDS011;41218;55.700;38.270;2023-07-31T17:43:15;6.32;;;3.70;;
55346;SDS011;41218;55.700;38.270;2023-07-31T17:48:16;6.40;;;3.97;;
55346;SDS011;41218;55.700;38.270;2023-07-31T17:53:16;7.72;;;4.30;;
55346;SDS011;41218;55.700;38.270;2023-07-31T17:58:17;8.38;;;4.40;;
55346;SDS011;41218;55.700;38.270;2023-07-31T18:03:17;6.60;;;4.35;;
55346;SDS011;41218;55.700;38.270;2023-07-31T18:08:18;13.40;;;4.53;;
55346;SDS011;41218;55.700;38.270;2023-07-31T18:13:21;10.57;;;4.65;;
55346;SDS011;41218;55.700;38.270;2023-07-31T18:18:22;5.72;;;3.97;;
55346;SDS011;41218;55.700;38.270;2023-07-31T18:23:22;5.57;;;3.90;;
55346;SDS011;41218;55.700;38.270;2023-07-31T18:28:23;7.40;;;4.32;;
55346;SDS011;41218;55.700;38.270;2023-07-31T18:33:23;8.40;;;3.60;;
55346;SDS011;41218;55.700;38.270;2023-07-31T18:38:25;6.07;;;4.32;;
55346;SDS011;41218;55.700;38.270;2023-07-31T18:43:31;6.75;;;4.50;;
55346;SDS011;41218;55.700;38.270;2023-07-31T18:48:32;7.22;;;4.57;;
55346;SDS011;41218;55.700;38.270;2023-07-31T18:53:33;6.65;;;4.35;;
55346;SDS011;41218;55.700;38.270;2023-07-31T18:58:33;7.93;;;4.28;;
55346;SDS011;41218;55.700;38.270;2023-07-31T19:03:35;6.22;;;4.60;;
55346;SDS011;41218;55.700;38.270;2023-07-31T19:08:37;7.40;;;4.72;;
55346;SDS011;41218;55.700;38.270;2023-07-31T19:13:38;6.75;;;4.57;;
55346;SDS011;41218;55.700;38.270;2023-07-31T19:18:40;6.93;;;4.43;;
55346;SDS011;41218;55.700;38.270;2023-07-31T19:23:41;8.73;;;4.50;;
55346;SDS011;41218;55.700;38.270;2023-07-31T19:28:41;7.38;;;4.55;;
55346;SDS011;41218;55.700;38.270;2023-07-31T19:33:42;7.75;;;4.65;;
55346;SDS011;41218;55.700;38.270;2023-07-31T19:38:42;7.72;;;4.90;;
55346;SDS011;41218;55.700;38.270;2023-07-31T19:43:43;5.97;;;4.57;;
55346;SDS011;41218;55.700;38.270;2023-07-31T19:48:43;6.22;;;4.63;;
55346;SDS011;41218;55.700;38.270;2023-07-31T19:53:44;6.40;;;4.47;;
55346;SDS011;41218;55.700;38.270;2023-07-31T19:58:45;9.13;;;4.53;;
55346;SDS011;41218;55.700;38.270;2023-07-31T20:03:45;7.22;;;4.78;;
55346;SDS011;41218;55.700;38.270;2023-07-31T20:08:46;7.90;;;4.45;;
55346;SDS011;41218;55.700;38.270;2023-07-31T20:18:47;9.47;;;4.57;;
55346;SDS011;41218;55.700;38.270;2023-07-31T20:23:50;5.68;;;4.35;;
55346;SDS011;41218;55.700;38.270;2023-07-31T20:28:50;7.15;;;5.07;;
55346;SDS011;41218;55.700;38.270;2023-07-31T20:33:51;7.85;;;4.57;;
55346;SDS011;41218;55.700;38.270;2023-07-31T20:43:52;8.07;;;4.90;;
55346;SDS011;41218;55.700;38.270;2023-07-31T20:53:53;7.87;;;4.63;;
55346;SDS011;41218;55.700;38.270;2023-07-31T21:03:54;6.80;;;4.37;;
55346;SDS011;41218;55.700;38.270;2023-07-31T21:13:55;9.63;;;4.70;;
55346;SDS011;41218;55.700;38.270;2023-07-31T21:18:57;7.05;;;5.35;;
55346;SDS011;41218;55.700;38.270;2023-07-31T21:28:58;7.27;;;4.90;;
55346;SDS011;41218;55.700;38.270;2023-07-31T21:34:01;9.25;;;4.72;;
55346;SDS011;41218;55.700;38.270;2023-07-31T21:44:02;8.97;;;5.03;;
55346;SDS011;41218;55.700;38.270;2023-07-31T21:54:03;6.97;;;4.77;;
55346;SDS011;41218;55.700;38.270;2023-07-31T22:04:04;7.57;;;5.17;;
55346;SDS011;41218;55.700;38.270;2023-07-31T22:14:05;7.77;;;5.37;;
55346;SDS011;41218;55.700;38.270;2023-07-31T22:24:06;11.40;;;5.70;;
55346;SDS011;41218;55.700;38.270;2023-07-31T22:29:07;10.82;;;5.57;;
55346;SDS011;41218;55.700;38.270;2023-07-31T22:34:10;9.35;;;5.57;;
55346;SDS011;41218;55.700;38.270;2023-07-31T22:44:11;7.40;;;5.40;;
55346;SDS011;41218;55.700;38.270;2023-07-31T22:49:11;12.70;;;6.25;;
55346;SDS011;41218;55.700;38.270;2023-07-31T22:54:12;9.48;;;6.10;;
55346;SDS011;41218;55.700;38.270;2023-07-31T23:04:13;12.80;;;5.93;;
55346;SDS011;41218;55.700;38.270;2023-07-31T23:14:13;10.20;;;6.17;;
55346;SDS011;41218;55.700;38.270;2023-07-31T23:19:14;9.07;;;6.07;;
55346;SDS011;41218;55.700;38.270;2023-07-31T23:24:15;9.95;;;6.60;;
55346;SDS011;41218;55.700;38.270;2023-07-31T23:29:15;9.82;;;6.35;;
55346;SDS011;41218;55.700;38.270;2023-07-31T23:34:16;9.48;;;6.25;;
55346;SDS011;41218;55.700;38.270;2023-07-31T23:44:17;10.80;;;6.20;;
55346;SDS011;41218;55.700;38.270;2023-07-31T23:49:17;11.20;;;6.38;;
55346;SDS011;41218;55.700;38.270;2023-07-31T23:54:18;10.73;;;6.47;;
55346;SDS011;41218;55.700;38.270;2023-07-31T23:59:18;10.60;;;5.80;;
